Time;durP1;ratioP1;P1;durP2;ratioP2;P2;SDS_P1;SDS_P2;PMS_P1;PMS_P2;Temp;Humidity;BMP_temperature;BMP_pressure;BME280_temperature;BME280_humidity;BME280_pressure;Samples;Min_cycle;Max_cycle;Signal;HPM_P1;HPM_P2
2021/05/26 00:00:57;;;;;;;0.70;0.50;;;;;;;15.77;79.53;97972.86;1657557;85;21079;-67
2021/05/26 00:03:24;;;;;;;0.80;0.50;;;;;;;15.70;80.11;97986.83;1657437;85;21108;-68
2021/05/26 00:05:51;;;;;;;0.45;0.45;;;;;;;15.68;79.16;97981.75;1657348;85;21240;-65
2021/05/26 00:08:28;;;;;;;1.55;0.70;;;;;;;15.63;80.75;97979.69;1657457;85;21087;-65
2021/05/26 00:10:58;;;;;;;1.17;0.70;;;;;;;15.65;78.67;97986.03;1657471;85;21103;-65
2021/05/26 00:13:25;;;;;;;0.40;0.40;;;;;;;15.64;79.56;97989.66;1655473;85;21576;-65
2021/05/26 00:15:54;;;;;;;0.60;0.53;;;;;;;15.63;78.62;97991.46;1647679;86;21588;-65
2021/05/26 00:18:22;;;;;;;1.10;0.40;;;;;;;15.65;77.69;97998.63;1647494;86;21084;-65
2021/05/26 00:20:52;;;;;;;0.50;0.50;;;;;;;15.63;78.79;97999.31;1647712;86;21194;-65
2021/05/26 00:23:19;;;;;;;0.82;0.55;;;;;;;15.63;78.65;97990.16;1647649;86;21037;-65
2021/05/26 00:25:46;;;;;;;0.23;0.23;;;;;;;15.61;78.18;97979.03;1647578;86;21136;-65
2021/05/26 00:28:14;;;;;;;3.70;0.45;;;;;;;15.59;76.95;97977.09;1647698;86;21702;-66
2021/05/26 00:30:46;;;;;;;2.85;0.40;;;;;;;15.57;76.94;97970.38;1647687;86;21072;-65
2021/05/26 00:33:13;;;;;;;0.45;0.40;;;;;;;15.54;77.10;97982.02;1647395;86;22450;-66
2021/05/26 00:35:41;;;;;;;0.75;0.50;;;;;;;15.50;77.47;97985.15;1647610;86;21068;-65
2021/05/26 00:38:09;;;;;;;0.30;0.30;;;;;;;15.43;78.21;97985.00;1621634;86;21021;-65
2021/05/26 00:40:37;;;;;;;0.72;0.47;;;;;;;15.36;78.92;97979.33;1647484;86;21548;-65
2021/05/26 00:43:04;;;;;;;0.42;0.33;;;;;;;15.29;78.67;97971.84;1647562;86;21135;-65
2021/05/26 00:45:32;;;;;;;0.82;0.57;;;;;;;15.25;79.33;97959.61;1647584;86;21084;-65
2021/05/26 00:48:00;;;;;;;0.42;0.42;;;;;;;15.20;79.77;97952.27;1647612;86;21587;-65
2021/05/26 00:50:33;;;;;;;1.00;0.62;;;;;;;15.15;79.92;97957.19;1647739;86;21108;-65
2021/05/26 00:53:04;;;;;;;0.57;0.53;;;;;;;15.13;80.00;97977.98;1647716;86;21196;-66
2021/05/26 00:55:31;;;;;;;0.65;0.50;;;;;;;15.04;79.98;97968.53;1647805;86;21120;-64
2021/05/26 00:58:02;;;;;;;2.10;0.60;;;;;;;15.05;80.71;97968.86;1647582;86;21178;-64
2021/05/26 01:00:31;;;;;;;0.75;0.40;;;;;;;15.04;79.78;97967.22;1647733;86;21044;-65
2021/05/26 01:03:00;;;;;;;2.87;0.40;;;;;;;15.09;79.39;97966.23;1644438;86;21096;-65
2021/05/26 01:05:29;;;;;;;0.78;0.50;;;;;;;15.13;78.94;97968.34;1621706;87;21040;-64
2021/05/26 01:07:56;;;;;;;0.50;0.40;;;;;;;15.17;78.61;97963.58;1647571;86;21592;-64
2021/05/26 01:10:27;;;;;;;0.35;0.30;;;;;;;15.19;77.24;97966.81;1647779;86;21616;-64
2021/05/26 01:12:57;;;;;;;0.47;0.40;;;;;;;15.20;77.42;97967.97;1646867;86;21068;-67
2021/05/26 01:15:24;;;;;;;0.42;0.42;;;;;;;15.23;77.79;97966.80;1656396;85;21195;-66
2021/05/26 01:17:52;;;;;;;1.20;0.40;;;;;;;15.25;77.36;97959.61;1657519;85;21112;-65
2021/05/26 01:20:26;;;;;;;1.07;0.47;;;;;;;15.28;77.53;97963.67;1657044;85;21171;-67
2021/05/26 01:22:57;;;;;;;2.83;0.50;;;;;;;15.27;77.82;97960.23;1657359;85;21079;-66
2021/05/26 01:25:25;;;;;;;0.50;0.47;;;;;;;15.27;77.78;97983.78;1657322;85;21178;-66
2021/05/26 01:27:52;;;;;;;0.75;0.40;;;;;;;15.30;78.09;97995.69;1657340;85;21064;-65
2021/05/26 01:30:25;;;;;;;1.85;0.40;;;;;;;15.26;78.60;97999.64;1657368;85;21579;-65
2021/05/26 01:32:53;;;;;;;0.78;0.45;;;;;;;15.18;78.75;98007.85;1657376;85;21084;-65
2021/05/26 01:35:22;;;;;;;0.30;0.30;;;;;;;15.20;78.83;98015.54;1656600;85;21112;-65
2021/05/26 01:37:49;;;;;;;0.45;0.40;;;;;;;15.21;78.93;98021.11;1657292;85;21060;-65
2021/05/26 01:40:18;;;;;;;0.57;0.50;;;;;;;15.24;78.82;98028.61;1657312;85;21048;-65
2021/05/26 01:42:46;;;;;;;0.33;0.30;;;;;;;15.24;78.64;98039.07;1657275;85;21194;-65
2021/05/26 01:45:17;;;;;;;0.45;0.30;;;;;;;14.83;77.91;97981.34;1657557;85;21140;-65
2021/05/26 01:47:50;;;;;;;0.53;0.40;;;;;;;15.21;76.87;98037.59;1657877;85;21083;-69
2021/05/26 01:50:25;;;;;;;0.45;0.30;;;;;;;15.19;76.51;98035.65;1657651;85;21095;-69
2021/05/26 01:52:56;;;;;;;0.30;0.30;;;;;;;15.20;75.74;98037.77;1657594;85;21059;-66
2021/05/26 01:55:24;;;;;;;0.42;0.37;;;;;;;15.20;76.28;98051.67;1657654;85;21091;-66
2021/05/26 01:57:51;;;;;;;0.72;0.45;;;;;;;15.19;76.50;98052.66;1657546;85;21083;-66
2021/05/26 02:00:22;;;;;;;0.62;0.42;;;;;;;15.18;76.98;98058.05;1656766;85;21132;-68
2021/05/26 02:02:51;;;;;;;0.68;0.60;;;;;;;15.12;77.64;98067.40;1657241;85;21096;-66
2021/05/26 02:05:19;;;;;;;0.60;0.35;;;;;;;15.09;77.37;98078.20;1657264;85;21635;-66
2021/05/26 02:07:47;;;;;;;1.57;0.57;;;;;;;14.96;78.90;98080.52;1657367;85;21072;-66
2021/05/26 02:12:19;;;;;;;0.85;0.65;;;;;;;14.88;80.48;98087.55;1657211;85;21135;-66
2021/05/26 02:12:47;;;;;;;0.85;0.62;;;;;;;14.76;80.49;98096.72;1634001;85;21615;-64
2021/05/26 02:15:15;;;;;;;0.85;0.50;;;;;;;14.53;81.48;98103.94;1650295;85;21195;-67
2021/05/26 02:17:43;;;;;;;0.85;0.40;;;;;;;14.53;81.29;98114.39;1647643;86;21084;-66
2021/05/26 02:20:12;;;;;;;0.85;0.50;;;;;;;14.55;81.18;98120.25;1647676;86;21076;-67
2021/05/26 02:22:40;;;;;;;0.90;0.60;;;;;;;14.56;78.69;98122.38;1647815;86;21099;-67
2021/05/26 02:25:09;;;;;;;1.00;0.70;;;;;;;14.55;78.64;98126.00;1647700;86;21067;-66
2021/05/26 02:27:37;;;;;;;2.40;0.80;;;;;;;14.36;79.33;98115.88;1647743;86;21088;-64
2021/05/26 02:30:07;;;;;;;0.62;0.42;;;;;;;14.26;78.74;98117.28;1645657;86;21183;-65
2021/05/26 02:32:34;;;;;;;1.40;0.50;;;;;;;14.20;79.07;98118.73;1647871;86;21056;-65
2021/05/26 02:35:02;;;;;;;1.05;0.53;;;;;;;14.20;78.43;98121.34;1647819;86;21115;-65
2021/05/26 02:37:29;;;;;;;0.28;0.28;;;;;;;14.18;78.19;98127.72;1647777;86;21584;-67
2021/05/26 02:39:58;;;;;;;0.47;0.30;;;;;;;14.13;77.53;98136.52;1647851;86;21576;-66
2021/05/26 02:42:24;;;;;;;0.90;0.40;;;;;;;14.08;76.64;98138.81;1647744;86;21132;-67
2021/05/26 02:44:52;;;;;;;0.62;0.50;;;;;;;13.97;76.29;98138.61;1647888;86;21100;-67
2021/05/26 02:47:20;;;;;;;0.40;0.40;;;;;;;13.90;74.27;98141.53;1647759;86;21577;-66
2021/05/26 02:49:47;;;;;;;0.70;0.40;;;;;;;13.81;74.02;98132.55;1647773;86;21628;-64
2021/05/26 02:52:16;;;;;;;0.45;0.40;;;;;;;13.73;73.98;98135.95;1647751;86;21084;-67
2021/05/26 02:54:43;;;;;;;0.35;0.30;;;;;;;13.64;73.94;98142.10;1647855;86;21067;-67
2021/05/26 02:57:10;;;;;;;0.35;0.23;;;;;;;13.53;73.83;98147.13;1647958;86;21075;-67
2021/05/26 02:59:56;;;;;;;0.23;0.23;;;;;;;13.46;73.36;98151.82;1648047;86;21099;-65
2021/05/26 03:02:24;;;;;;;0.65;0.30;;;;;;;13.36;73.46;98161.05;1646278;86;21124;-67
2021/05/26 03:04:53;;;;;;;0.70;0.30;;;;;;;13.29;72.80;98165.25;1646977;86;21123;-66
2021/05/26 03:07:21;;;;;;;0.72;0.28;;;;;;;13.25;72.64;98169.14;1647685;86;21104;-66
2021/05/26 03:09:48;;;;;;;0.37;0.30;;;;;;;13.18;72.77;98189.81;1647712;86;21199;-66
2021/05/26 03:12:15;;;;;;;0.30;0.25;;;;;;;13.12;73.29;98207.36;1647768;86;21115;-67
2021/05/26 03:14:49;;;;;;;0.30;0.30;;;;;;;13.01;73.06;98219.30;1651011;85;21087;-66
2021/05/26 03:17:17;;;;;;;0.78;0.30;;;;;;;13.01;73.21;98215.88;1657535;85;21076;-66
2021/05/26 03:19:44;;;;;;;2.30;0.53;;;;;;;12.94;71.62;98229.19;1657292;85;21107;-66
2021/05/26 03:22:32;;;;;;;0.20;0.20;;;;;;;12.88;71.85;98243.62;1657572;85;21075;-66
2021/05/26 03:25:17;;;;;;;0.78;0.40;;;;;;;12.81;71.63;98242.59;1657529;85;21706;-66
2021/05/26 03:27:45;;;;;;;0.37;0.30;;;;;;;12.80;71.87;98236.56;1656942;84;21104;-66
2021/05/26 03:30:17;;;;;;;1.82;0.50;;;;;;;12.85;72.00;98239.55;1657506;85;21100;-66
2021/05/26 03:32:44;;;;;;;0.60;0.53;;;;;;;12.80;71.78;98236.56;1657445;85;21111;-67
2021/05/26 03:35:14;;;;;;;2.05;0.30;;;;;;;12.73;71.36;98240.73;1657385;85;21060;-67
2021/05/26 03:37:42;;;;;;;0.62;0.28;;;;;;;12.66;73.03;98235.80;1636717;85;21110;-67
2021/05/26 03:40:13;;;;;;;0.75;0.33;;;;;;;12.62;73.56;98237.53;1657520;85;21595;-67
2021/05/26 03:42:43;;;;;;;0.70;0.42;;;;;;;12.67;73.36;98232.23;1657356;85;21131;-67
2021/05/26 03:45:14;;;;;;;0.33;0.33;;;;;;;12.74;73.29;98231.14;1656581;85;21064;-66
2021/05/26 03:47:43;;;;;;;0.82;0.60;;;;;;;12.78;73.10;98220.75;1657234;85;21096;-66
2021/05/26 03:50:15;;;;;;;1.85;0.30;;;;;;;12.87;72.14;98225.07;1657409;85;21127;-66
2021/05/26 03:52:46;;;;;;;0.45;0.30;;;;;;;12.96;71.51;98220.72;1636731;85;21075;-66
2021/05/26 03:55:38;;;;;;;0.62;0.20;;;;;;;13.05;71.29;98222.42;1657306;85;21170;-66
2021/05/26 03:58:07;;;;;;;0.50;0.33;;;;;;;13.13;71.29;98226.43;1609702;86;21093;-66
2021/05/26 04:00:34;;;;;;;0.23;0.17;;;;;;;13.19;71.02;98220.62;1601774;87;21133;-67
2021/05/26 04:03:03;;;;;;;0.40;0.40;;;;;;;13.25;70.57;98215.61;1609000;88;21636;-66
2021/05/26 04:05:30;;;;;;;0.55;0.50;;;;;;;13.31;70.17;98224.11;1612784;87;21591;-68
2021/05/26 04:07:57;;;;;;;0.70;0.40;;;;;;;13.38;70.20;98230.85;1600254;88;21201;-67
2021/05/26 04:10:24;;;;;;;2.45;0.30;;;;;;;13.38;69.19;98234.77;1609182;88;21113;-68
2021/05/26 04:12:53;;;;;;;0.37;0.30;;;;;;;13.31;68.90;98220.67;1611909;86;21137;-65
2021/05/26 04:15:24;;;;;;;0.50;0.35;;;;;;;13.38;68.79;98238.68;1600458;87;21138;-67
2021/05/26 04:18:09;;;;;;;0.57;0.30;;;;;;;13.38;69.59;98245.20;1600451;88;21149;-65
2021/05/26 04:20:40;;;;;;;0.30;0.30;;;;;;;13.47;69.97;98244.26;1603950;89;21065;-65
2021/05/26 04:23:07;;;;;;;0.57;0.47;;;;;;;13.59;69.71;98246.94;1612066;87;21184;-66
2021/05/26 04:25:35;;;;;;;0.65;0.30;;;;;;;13.62;68.56;98237.49;1600633;87;21173;-63
2021/05/26 04:28:02;;;;;;;1.07;0.30;;;;;;;13.68;68.76;98234.28;1609452;88;21153;-66
2021/05/26 04:30:29;;;;;;;0.62;0.50;;;;;;;13.74;68.98;98237.56;1611973;87;21682;-65
2021/05/26 04:32:57;;;;;;;2.05;0.57;;;;;;;13.78;68.76;98239.37;1600477;88;21118;-65
2021/05/26 04:35:24;;;;;;;0.55;0.40;;;;;;;13.74;68.43;98236.25;1609372;87;21074;-66
2021/05/26 04:37:51;;;;;;;0.78;0.50;;;;;;;13.75;68.54;98230.55;1611815;86;21109;-64
2021/05/26 04:40:18;;;;;;;1.55;0.50;;;;;;;13.76;68.53;98228.28;1600454;88;21125;-65
2021/05/26 04:42:46;;;;;;;0.95;0.50;;;;;;;13.79;68.65;98228.78;1609471;88;21105;-65
2021/05/26 04:45:15;;;;;;;0.53;0.40;;;;;;;13.70;68.48;98215.36;1611730;87;21209;-65
2021/05/26 04:47:42;;;;;;;0.37;0.37;;;;;;;13.80;67.49;98228.30;1600333;87;21109;-66
2021/05/26 04:50:11;;;;;;;1.10;0.45;;;;;;;13.87;68.30;98231.92;1609325;88;21117;-67
2021/05/26 04:52:38;;;;;;;0.30;0.30;;;;;;;13.92;68.90;98228.84;1608342;87;21037;-66
2021/05/26 04:55:06;;;;;;;1.00;0.70;;;;;;;13.93;67.82;98233.09;1600862;88;21173;-65
2021/05/26 04:57:33;;;;;;;82.08;36.98;;;;;;;13.85;68.71;98231.75;1609984;88;21078;-65
2021/05/26 05:00:00;;;;;;;73.20;31.73;;;;;;;13.96;68.73;98230.16;1618519;86;21092;-65
2021/05/26 05:02:27;;;;;;;30.35;17.27;;;;;;;14.11;67.03;98225.49;1605126;88;21208;-68
2021/05/26 05:04:54;;;;;;;65.20;29.12;;;;;;;14.32;67.06;98222.42;1609823;88;21736;-64
2021/05/26 05:07:24;;;;;;;19.52;8.03;;;;;;;14.49;66.14;98226.75;1618503;86;21139;-62
2021/05/26 05:09:50;;;;;;;3.33;2.00;;;;;;;14.60;64.00;98223.83;1604982;88;21074;-64
2021/05/26 05:12:18;;;;;;;1.65;1.20;;;;;;;14.63;64.76;98228.72;1609751;87;21144;-62
2021/05/26 05:14:45;;;;;;;0.95;0.60;;;;;;;14.73;64.62;98229.41;1618461;86;21108;-64
2021/05/26 05:17:12;;;;;;;1.55;0.80;;;;;;;14.86;65.22;98226.80;1605093;88;21090;-63
2021/05/26 05:19:39;;;;;;;1.27;0.68;;;;;;;14.95;64.45;98228.41;1609855;88;21097;-65
2021/05/26 05:22:06;;;;;;;2.52;0.68;;;;;;;15.00;64.27;98230.88;1618610;86;21735;-65
2021/05/26 05:24:33;;;;;;;2.37;0.70;;;;;;;15.07;64.29;98230.55;1605198;88;21109;-64
2021/05/26 05:27:00;;;;;;;0.82;0.55;;;;;;;15.17;65.33;98238.23;1609703;88;21088;-63
2021/05/26 05:29:27;;;;;;;1.27;0.65;;;;;;;15.33;64.72;98226.42;1618585;86;21073;-63
2021/05/26 05:31:54;;;;;;;3.72;0.65;;;;;;;15.45;63.32;98231.63;1605157;87;21097;-65
2021/05/26 05:34:26;;;;;;;0.50;0.28;;;;;;;15.57;63.54;98234.75;1619536;87;21069;-61
2021/05/26 05:36:56;;;;;;;1.60;0.70;;;;;;;15.68;62.58;98235.20;1622492;85;21093;-62
2021/05/26 05:39:23;;;;;;;2.65;0.82;;;;;;;15.76;60.50;98234.89;1633138;85;21096;-63
2021/05/26 05:41:50;;;;;;;3.02;0.45;;;;;;;15.82;58.76;98235.51;1631406;85;21091;-64
2021/05/26 05:44:18;;;;;;;1.50;0.80;;;;;;;15.87;60.88;98239.27;1631709;86;21637;-63
2021/05/26 05:46:45;;;;;;;0.62;0.40;;;;;;;15.95;61.81;98246.27;1627824;85;21619;-62
2021/05/26 05:49:12;;;;;;;0.62;0.40;;;;;;;16.01;59.84;98239.03;1626133;86;22289;-62
2021/05/26 05:51:39;;;;;;;2.55;0.53;;;;;;;16.06;59.74;98245.41;1591544;88;21136;-62
2021/05/26 05:54:09;;;;;;;0.60;0.42;;;;;;;16.12;58.08;98239.97;1610945;87;21698;-62
2021/05/26 05:56:37;;;;;;;1.02;0.40;;;;;;;16.22;59.73;98239.28;1634404;85;21614;-62
2021/05/26 05:59:04;;;;;;;1.17;0.57;;;;;;;16.28;58.52;98243.00;1615643;86;21099;-62
2021/05/26 06:01:33;;;;;;;1.07;0.40;;;;;;;16.36;60.04;98245.09;1615147;86;21103;-62
2021/05/26 06:04:00;;;;;;;4.72;0.53;;;;;;;16.52;60.31;98247.63;1610298;86;21173;-65
2021/05/26 06:06:27;;;;;;;0.40;0.40;;;;;;;16.51;56.69;98239.44;1589951;88;21069;-67
2021/05/26 06:08:54;;;;;;;1.12;0.68;;;;;;;16.47;56.05;98239.95;1588040;87;21085;-64
2021/05/26 06:11:21;;;;;;;0.60;0.50;;;;;;;16.08;55.32;98239.98;1588109;88;21068;-64
2021/05/26 06:13:49;;;;;;;0.78;0.55;;;;;;;16.18;57.14;98234.06;1588141;88;21171;-63
2021/05/26 06:16:16;;;;;;;1.10;0.40;;;;;;;16.24;57.42;98233.36;1588206;87;21152;-65
2021/05/26 06:18:43;;;;;;;0.70;0.50;;;;;;;16.34;57.15;98233.95;1588021;87;21157;-64
2021/05/26 06:21:10;;;;;;;2.37;0.53;;;;;;;16.38;57.04;98230.52;1587950;87;21196;-73
2021/05/26 06:23:39;;;;;;;0.80;0.53;;;;;;;16.50;58.30;98234.34;1588013;87;21084;-75
2021/05/26 06:26:06;;;;;;;1.17;0.55;;;;;;;16.64;59.60;98234.97;1588143;87;21088;-74
2021/05/26 06:28:33;;;;;;;0.62;0.37;;;;;;;16.76;56.93;98230.13;1588226;87;21576;-75
2021/05/26 06:31:00;;;;;;;0.80;0.53;;;;;;;16.84;58.03;98228.77;1588303;87;21070;-74
2021/05/26 06:33:27;;;;;;;0.60;0.50;;;;;;;16.71;52.14;98232.45;1588253;87;21116;-74
2021/05/26 06:35:58;;;;;;;1.47;0.45;;;;;;;16.57;51.20;98225.65;1588508;87;21140;-75
2021/05/26 06:38:25;;;;;;;0.70;0.33;;;;;;;16.51;50.44;98223.70;1588320;87;21104;-78
2021/05/26 06:40:51;;;;;;;0.70;0.50;;;;;;;16.62;51.72;98226.44;1591231;88;21061;-67
2021/05/26 06:43:18;;;;;;;0.82;0.50;;;;;;;16.62;51.83;98229.06;1592323;88;21053;-69
2021/05/26 06:45:45;;;;;;;0.80;0.50;;;;;;;16.65;52.15;98230.55;1592923;88;21156;-67
2021/05/26 06:48:12;;;;;;;1.95;0.55;;;;;;;16.65;51.57;98225.30;1592605;88;21096;-69
2021/05/26 06:50:39;;;;;;;0.55;0.40;;;;;;;16.47;50.52;98227.66;1592926;88;21066;-69
2021/05/26 06:53:06;;;;;;;0.53;0.35;;;;;;;16.79;53.19;98228.46;1592309;88;21089;-68
2021/05/26 06:55:33;;;;;;;0.42;0.40;;;;;;;16.83;49.46;98221.39;1592064;88;21105;-69
2021/05/26 06:58:00;;;;;;;0.85;0.42;;;;;;;16.83;49.55;98220.07;1603490;86;21080;-72
2021/05/26 07:00:29;;;;;;;0.45;0.40;;;;;;;16.85;49.50;98221.19;1600562;88;21189;-72
2021/05/26 07:02:56;;;;;;;0.53;0.33;;;;;;;16.92;50.16;98213.78;1609454;88;21823;-73
2021/05/26 07:05:23;;;;;;;1.50;0.95;;;;;;;17.00;50.26;98218.14;1612098;86;21579;-67
2021/05/26 07:07:50;;;;;;;0.50;0.30;;;;;;;17.10;50.80;98210.83;1600572;88;21094;-72
2021/05/26 07:10:18;;;;;;;1.20;0.55;;;;;;;17.29;49.58;98210.32;1609526;89;21089;-72
2021/05/26 07:12:46;;;;;;;1.02;0.55;;;;;;;17.40;49.65;98210.37;1612066;87;21072;-72
2021/05/26 07:15:15;;;;;;;2.30;0.40;;;;;;;17.55;50.83;98210.70;1600492;89;21654;-74
2021/05/26 07:17:42;;;;;;;3.15;0.50;;;;;;;17.80;52.95;98206.03;1609507;89;21100;-74
2021/05/26 07:20:10;;;;;;;1.42;0.42;;;;;;;17.92;50.57;98201.13;1612070;87;21728;-73
2021/05/26 07:22:37;;;;;;;0.47;0.42;;;;;;;17.62;49.08;98204.77;1601013;88;21109;-74
2021/05/26 07:25:06;;;;;;;1.02;0.60;;;;;;;17.74;49.87;98201.48;1610039;89;21161;-74
2021/05/26 07:27:32;;;;;;;2.83;0.70;;;;;;;18.06;50.77;98202.91;1612269;86;21065;-73
2021/05/26 07:29:59;;;;;;;0.90;0.40;;;;;;;18.21;49.39;98195.80;1600989;88;21070;-74
2021/05/26 07:32:26;;;;;;;1.65;0.40;;;;;;;18.40;50.18;98197.83;1609982;89;21069;-73
2021/05/26 07:34:53;;;;;;;0.78;0.40;;;;;;;18.38;48.96;98196.41;1612068;87;21069;-72
2021/05/26 07:37:20;;;;;;;37.53;17.23;;;;;;;18.64;50.53;98198.01;1600703;89;21066;-70
2021/05/26 07:39:47;;;;;;;127.27;51.73;;;;;;;18.79;48.97;98194.80;1609425;89;21245;-69
2021/05/26 07:42:15;;;;;;;18.52;10.08;;;;;;;18.96;47.96;98194.05;1612097;86;21176;-70
2021/05/26 07:44:42;;;;;;;2.98;1.72;;;;;;;18.89;43.56;98191.88;1600675;90;21504;-69
2021/05/26 07:47:09;;;;;;;1.30;0.70;;;;;;;18.72;43.73;98194.44;1609608;88;21172;-70
2021/05/26 07:49:36;;;;;;;0.62;0.47;;;;;;;18.85;46.16;98190.62;1612219;87;21109;-72
2021/05/26 07:52:06;;;;;;;0.90;0.65;;;;;;;19.06;46.55;98193.73;1600965;88;21184;-73
2021/05/26 07:54:33;;;;;;;0.90;0.65;;;;;;;19.00;43.28;98190.53;1609872;88;21168;-73
2021/05/26 07:57:00;;;;;;;1.10;0.70;;;;;;;18.94;43.49;98195.58;1608938;86;21070;-72
2021/05/26 07:59:27;;;;;;;0.45;0.40;;;;;;;19.17;45.00;98194.03;1600684;87;21669;-70
2021/05/26 08:01:54;;;;;;;0.85;0.20;;;;;;;19.43;44.08;98194.73;1609505;88;21140;-72
2021/05/26 08:04:21;;;;;;;0.20;0.20;;;;;;;19.61;42.13;98196.89;1611903;87;21062;-71
2021/05/26 08:06:47;;;;;;;1.87;0.30;;;;;;;19.71;42.23;98190.75;1600504;88;21097;-72
2021/05/26 08:09:14;;;;;;;0.30;0.20;;;;;;;19.70;42.65;98190.44;1609285;88;21144;-70
2021/05/26 08:11:41;;;;;;;0.37;0.37;;;;;;;19.81;42.68;98192.52;1612024;87;21270;-69
2021/05/26 08:14:08;;;;;;;0.45;0.28;;;;;;;19.70;39.49;98187.30;1600656;88;21152;-71
2021/05/26 08:16:34;;;;;;;0.28;0.23;;;;;;;19.83;39.96;98184.73;1609397;88;21216;-72
2021/05/26 08:19:01;;;;;;;0.75;0.50;;;;;;;19.87;39.41;98191.75;1612067;87;21283;-73
2021/05/26 08:21:28;;;;;;;1.85;0.30;;;;;;;19.83;41.20;98190.51;1600763;88;21177;-71
2021/05/26 08:23:54;;;;;;;1.67;0.30;;;;;;;20.17;43.26;98183.85;1609463;88;21104;-70
2021/05/26 08:26:22;;;;;;;0.40;0.30;;;;;;;20.47;42.75;98182.22;1612114;86;21180;-70
2021/05/26 08:28:52;;;;;;;0.62;0.40;;;;;;;20.64;42.58;98175.56;1600585;88;21185;-70
2021/05/26 08:31:20;;;;;;;2.30;0.80;;;;;;;20.78;42.46;98175.38;1609407;89;21673;-71
2021/05/26 08:33:47;;;;;;;0.62;0.47;;;;;;;20.80;39.59;98173.86;1612042;87;21126;-70
2021/05/26 08:36:14;;;;;;;1.00;0.50;;;;;;;21.00;41.55;98165.95;1600281;89;21208;-71
2021/05/26 08:38:43;;;;;;;0.47;0.45;;;;;;;21.22;41.65;98170.83;1609451;89;21101;-70
2021/05/26 08:41:11;;;;;;;0.60;0.60;;;;;;;21.48;42.26;98171.28;1612035;87;21085;-70
2021/05/26 08:43:42;;;;;;;1.15;0.53;;;;;;;21.57;37.59;98163.45;1600444;89;21661;-71
2021/05/26 08:46:10;;;;;;;0.35;0.30;;;;;;;21.55;37.64;98168.65;1609583;89;21621;-71
2021/05/26 08:48:37;;;;;;;0.30;0.30;;;;;;;21.68;37.72;98169.41;1611889;87;21744;-70
2021/05/26 08:51:10;;;;;;;0.68;0.40;;;;;;;21.87;38.73;98162.42;1600725;89;21045;-71
2021/05/26 08:53:35;;;;;;;0.85;0.40;;;;;;;22.29;39.54;98165.03;1608986;88;21280;-70
2021/05/26 08:56:02;;;;;;;0.65;0.37;;;;;;;22.55;36.32;98171.98;1612011;87;21097;-70
2021/05/26 08:58:28;;;;;;;0.70;0.50;;;;;;;22.53;35.86;98172.70;1600445;89;21712;-70
2021/05/26 09:00:56;;;;;;;0.53;0.40;;;;;;;21.84;37.15;98160.20;1656234;80;21164;-70
2021/05/26 09:03:23;;;;;;;2.75;1.77;;;;;;;21.80;36.86;98166.93;1677632;84;21123;-70
2021/05/26 09:05:53;;;;;;;1.10;0.60;;;;;;;21.88;36.78;98157.45;1658291;86;21106;-67
2021/05/26 09:08:22;;;;;;;0.98;0.30;;;;;;;22.29;38.75;98154.95;1678018;85;21064;-67
2021/05/26 09:10:56;;;;;;;1.15;0.47;;;;;;;22.57;38.85;98161.47;1658350;86;21551;-70
2021/05/26 09:13:36;;;;;;;1.17;0.70;;;;;;;22.58;36.37;98156.99;1658343;86;21099;-70
2021/05/26 09:16:07;;;;;;;1.30;0.60;;;;;;;22.35;37.06;98152.77;1656945;86;21575;-70
2021/05/26 09:19:01;;;;;;;0.62;0.53;;;;;;;22.50;37.48;98147.48;1657682;86;21060;-70
2021/05/26 09:21:55;;;;;;;0.72;0.40;;;;;;;22.34;37.77;98149.81;1658297;86;21122;-66
2021/05/26 09:24:26;;;;;;;0.72;0.50;;;;;;;21.80;37.39;98145.78;1658407;86;21095;-68
2021/05/26 09:27:02;;;;;;;1.35;0.40;;;;;;;21.63;38.94;98139.36;1676620;85;21167;-71
2021/05/26 09:29:47;;;;;;;0.88;0.60;;;;;;;21.16;39.29;98149.72;1675739;85;21083;-70
2021/05/26 09:32:26;;;;;;;2.42;0.50;;;;;;;21.73;39.89;98143.17;1678028;85;21097;-67
2021/05/26 09:35:00;;;;;;;0.35;0.35;;;;;;;22.08;39.58;98134.91;1677417;85;21087;-67
2021/05/26 09:37:34;;;;;;;1.57;0.62;;;;;;;22.50;39.49;98140.05;1677343;85;21120;-65
2021/05/26 09:40:07;;;;;;;0.37;0.30;;;;;;;22.78;37.86;98135.20;1676836;85;21203;-67
2021/05/26 09:42:49;;;;;;;1.30;0.75;;;;;;;23.07;38.44;98132.41;1658152;86;21126;-67
2021/05/26 09:45:30;;;;;;;1.25;0.70;;;;;;;23.25;35.13;98137.73;1658035;86;21060;-65
2021/05/26 09:47:55;;;;;;;2.55;1.70;;;;;;;22.90;36.59;98118.09;1657797;86;21591;-71
2021/05/26 09:50:29;;;;;;;1.22;1.05;;;;;;;22.83;36.35;98114.19;1658469;86;21686;-71
2021/05/26 09:53:15;;;;;;;0.65;0.60;;;;;;;23.59;38.67;98120.47;1658073;86;21135;-71
2021/05/26 09:55:46;;;;;;;1.05;0.60;;;;;;;23.96;37.70;98118.09;1658279;85;21198;-67
2021/05/26 09:58:15;;;;;;;1.15;0.72;;;;;;;24.02;35.66;98115.86;1657720;85;21611;-71
2021/05/26 10:00:45;;;;;;;1.55;0.70;;;;;;;23.60;34.79;98110.17;1685100;85;21194;-70
2021/05/26 10:03:13;;;;;;;1.42;0.57;;;;;;;24.13;35.64;98104.47;1688561;85;21163;-67
2021/05/26 10:05:41;;;;;;;1.62;0.80;;;;;;;23.79;35.10;98108.30;1688655;85;21071;-67
2021/05/26 10:08:27;;;;;;;1.62;0.65;;;;;;;23.71;35.20;98111.25;1686975;84;21155;-66
2021/05/26 10:11:09;;;;;;;1.07;0.90;;;;;;;23.71;35.57;98105.44;1648893;85;21123;-68
2021/05/26 10:13:39;;;;;;;1.37;1.00;;;;;;;23.00;36.77;98104.64;1687190;83;21540;-66
2021/05/26 10:16:06;;;;;;;1.07;0.80;;;;;;;23.56;35.92;98101.04;1688798;85;21584;-70
2021/05/26 10:18:36;;;;;;;0.40;0.40;;;;;;;23.96;36.13;98103.50;1688763;83;21103;-68
2021/05/26 10:21:04;;;;;;;0.93;0.70;;;;;;;24.01;34.52;98098.83;1688499;85;21055;-67
2021/05/26 10:23:31;;;;;;;0.80;0.80;;;;;;;24.84;34.41;98094.36;1688390;84;21194;-67
2021/05/26 10:25:58;;;;;;;2.30;1.27;;;;;;;25.49;34.27;98088.86;1688594;85;21115;-67
2021/05/26 10:28:30;;;;;;;0.68;0.33;;;;;;;25.42;32.55;98082.87;1687782;85;21135;-68
2021/05/26 10:30:59;;;;;;;0.50;0.40;;;;;;;25.12;32.32;98084.36;1688737;83;21635;-67
2021/05/26 10:33:50;;;;;;;0.50;0.50;;;;;;;25.31;32.99;98083.19;1688635;85;21102;-68
2021/05/26 10:36:18;;;;;;;0.60;0.45;;;;;;;24.56;33.67;98078.23;1654503;85;21531;-70
2021/05/26 10:38:58;;;;;;;1.22;0.78;;;;;;;23.75;34.92;98085.41;1688504;83;21642;-66
2021/05/26 10:41:28;;;;;;;0.60;0.60;;;;;;;22.68;37.44;98079.29;1688888;85;21130;-66
2021/05/26 10:43:57;;;;;;;0.55;0.50;;;;;;;23.84;35.53;98076.12;1669000;85;21044;-66
2021/05/26 10:46:41;;;;;;;1.47;0.55;;;;;;;24.47;34.48;98075.10;1688028;85;21634;-66
2021/05/26 10:49:10;;;;;;;0.85;0.68;;;;;;;25.21;34.32;98071.02;1688924;85;21099;-66
2021/05/26 10:51:56;;;;;;;0.90;0.50;;;;;;;26.18;33.68;98064.42;1688882;85;21685;-68
2021/05/26 10:54:44;;;;;;;0.93;0.68;;;;;;;26.81;34.01;98056.94;1688739;85;21241;-66
2021/05/26 10:57:11;;;;;;;3.40;2.27;;;;;;;27.22;31.25;98058.88;1688260;83;21116;-66
2021/05/26 10:59:39;;;;;;;1.47;0.70;;;;;;;26.67;30.53;98057.00;1684842;85;21079;-67
2021/05/26 11:02:10;;;;;;;0.75;0.60;;;;;;;27.26;32.21;98052.81;1663480;85;21151;-65
2021/05/26 11:04:39;;;;;;;1.00;0.68;;;;;;;27.26;29.42;98048.01;1663403;86;21084;-67
2021/05/26 11:07:24;;;;;;;2.35;0.82;;;;;;;27.45;29.42;98044.50;1662615;86;21076;-65
2021/05/26 11:09:58;;;;;;;1.22;0.35;;;;;;;27.59;28.35;98045.23;1663390;85;21191;-67
2021/05/26 11:12:25;;;;;;;0.65;0.45;;;;;;;28.48;26.79;98037.58;1663317;86;21087;-69
2021/05/26 11:14:55;;;;;;;0.85;0.50;;;;;;;28.39;27.36;98039.12;1663360;86;21113;-70
2021/05/26 11:17:27;;;;;;;0.30;0.30;;;;;;;27.62;28.11;98034.09;1663389;86;21064;-66
2021/05/26 11:20:12;;;;;;;3.65;2.37;;;;;;;28.85;26.45;98024.78;1662876;86;21111;-66
2021/05/26 11:22:39;;;;;;;3.58;0.80;;;;;;;28.81;26.59;98014.33;1662808;85;21060;-67
2021/05/26 11:25:09;;;;;;;1.77;0.40;;;;;;;26.78;29.32;98021.47;1663402;86;21092;-66
2021/05/26 11:27:36;;;;;;;1.17;0.85;;;;;;;26.55;29.37;98023.51;1663422;86;21122;-68
2021/05/26 11:30:05;;;;;;;0.68;0.53;;;;;;;26.88;29.39;98019.52;1663696;86;21520;-66
2021/05/26 11:32:32;;;;;;;3.15;0.53;;;;;;;27.71;28.34;98020.56;1663564;85;21143;-67
2021/05/26 11:35:05;;;;;;;0.50;0.40;;;;;;;28.30;27.87;98018.75;1662826;85;21603;-69
2021/05/26 11:37:36;;;;;;;1.20;0.40;;;;;;;29.20;26.64;98019.09;1662978;86;21075;-71
2021/05/26 11:40:25;;;;;;;0.47;0.30;;;;;;;29.34;26.39;98014.08;1663339;86;21892;-71
2021/05/26 11:42:54;;;;;;;1.05;0.30;;;;;;;30.13;26.58;98013.23;1663308;86;21580;-71
2021/05/26 11:45:22;;;;;;;0.60;0.37;;;;;;;31.02;26.37;98009.97;1663284;86;21172;-72